Time;durP1;ratioP1;P1;durP2;ratioP2;P2;SDS_P1;SDS_P2;PMS_P1;PMS_P2;Temp;Humidity;BMP_temperature;BMP_pressure;BME280_temperature;BME280_humidity;BME280_pressure;Samples;Min_cycle;Max_cycle;Signal;HPM_P1;HPM_P2
2023/01/08 00:01:17;;;;;;;3.03;1.45;;;9.90;99.90;;;;;;6192800;23;20118;-83
2023/01/08 00:03:43;;;;;;;2.33;1.25;;;9.90;99.90;;;;;;6166799;23;20048;-83
2023/01/08 00:06:15;;;;;;;3.40;1.52;;;9.90;99.90;;;;;;6166709;23;20009;-83
2023/01/08 00:08:41;;;;;;;1.80;1.42;;;9.90;99.90;;;;;;6191824;23;20023;-84
2023/01/08 00:11:06;;;;;;;2.92;1.48;;;9.90;99.90;;;;;;6190010;23;20013;-83
2023/01/08 00:13:32;;;;;;;1.52;0.98;;;9.90;99.90;;;;;;6165770;23;20016;-83
2023/01/08 00:16:06;;;;;;;2.58;1.60;;;9.90;99.90;;;;;;6163836;23;20064;-83
2023/01/08 00:18:31;;;;;;;1.90;1.45;;;10.00;99.90;;;;;;6165823;23;20445;-83
2023/01/08 00:20:57;;;;;;;1.65;1.55;;;9.90;99.90;;;;;;6189881;23;20036;-83
2023/01/08 00:23:24;;;;;;;3.67;1.90;;;10.00;99.90;;;;;;6191427;23;20079;-84
2023/01/08 00:25:50;;;;;;;3.95;1.90;;;10.00;99.90;;;;;;6165867;23;20013;-83
2023/01/08 00:28:16;;;;;;;3.17;1.55;;;10.00;99.90;;;;;;6164457;23;20012;-84
2023/01/08 00:30:42;;;;;;;5.43;1.80;;;9.90;99.90;;;;;;6191188;23;20452;-83
2023/01/08 00:33:09;;;;;;;3.45;1.60;;;9.90;99.90;;;;;;6164865;23;20074;-83
2023/01/08 00:35:38;;;;;;;4.38;2.42;;;9.90;99.90;;;;;;6165073;23;20062;-83
2023/01/08 00:38:04;;;;;;;3.92;2.53;;;10.30;99.90;;;;;;6163955;23;20015;-83
2023/01/08 00:40:30;;;;;;;4.15;2.40;;;9.80;99.90;;;;;;6187380;23;20021;-83
2023/01/08 00:43:01;;;;;;;4.75;2.63;;;9.80;99.90;;;;;;6163766;23;20016;-84
2023/01/08 00:45:27;;;;;;;4.85;2.63;;;9.50;99.90;;;;;;6139721;23;20459;-83
2023/01/08 00:47:54;;;;;;;7.93;2.50;;;9.60;99.90;;;;;;6164094;23;20079;-84
2023/01/08 00:50:19;;;;;;;3.40;2.50;;;9.70;99.90;;;;;;6164475;23;20024;-84
2023/01/08 00:52:46;;;;;;;3.40;1.88;;;9.60;99.90;;;;;;6190161;23;20016;-83
2023/01/08 00:55:13;;;;;;;4.50;2.65;;;9.60;99.90;;;;;;6162929;23;20322;-83
2023/01/08 00:57:42;;;;;;;4.78;2.95;;;9.60;99.90;;;;;;6164207;23;20008;-83
2023/01/08 01:00:12;;;;;;;2.30;2.08;;;9.60;99.90;;;;;;6163619;23;20013;-84
2023/01/08 01:02:38;;;;;;;4.90;3.00;;;9.50;99.90;;;;;;6165269;23;20045;-84
2023/01/08 01:05:16;;;;;;;3.30;2.55;;;9.50;99.90;;;;;;6189073;23;20121;-84
2023/01/08 01:07:50;;;;;;;6.10;2.92;;;9.50;99.90;;;;;;6188281;23;20051;-83
2023/01/08 01:10:17;;;;;;;2.95;1.83;;;9.50;99.90;;;;;;6164627;23;20013;-83
2023/01/08 01:12:43;;;;;;;4.57;2.28;;;9.50;99.90;;;;;;6215132;23;20104;-84
2023/01/08 01:15:12;;;;;;;3.22;1.90;;;9.50;99.90;;;;;;6161671;23;20461;-84
2023/01/08 01:17:38;;;;;;;3.28;1.80;;;9.60;99.90;;;;;;6163098;23;20453;-83
2023/01/08 01:20:06;;;;;;;4.70;1.73;;;10.10;99.90;;;;;;6215625;23;20017;-83
2023/01/08 01:22:31;;;;;;;2.53;1.40;;;9.60;99.90;;;;;;6189343;23;20005;-83
2023/01/08 01:24:57;;;;;;;3.40;1.67;;;9.60;99.90;;;;;;6163379;23;20091;-84
2023/01/08 01:27:25;;;;;;;5.22;1.42;;;9.60;99.90;;;;;;6164518;23;20346;-84
2023/01/08 01:29:50;;;;;;;2.20;1.08;;;9.60;99.90;;;;;;6163526;23;20017;-83
2023/01/08 01:32:16;;;;;;;3.58;1.17;;;9.60;99.90;;;;;;6189237;23;20071;-83
2023/01/08 01:34:42;;;;;;;3.40;1.48;;;9.50;99.90;;;;;;6188550;23;20023;-83
2023/01/08 01:37:11;;;;;;;4.15;0.85;;;9.50;99.90;;;;;;6162558;23;20005;-82
2023/01/08 01:39:36;;;;;;;3.50;0.80;;;9.40;99.90;;;;;;6163597;23;20016;-83
2023/01/08 01:42:02;;;;;;;6.70;1.10;;;9.40;99.90;;;;;;6187797;23;20012;-83
2023/01/08 01:44:42;;;;;;;4.50;1.30;;;9.40;99.90;;;;;;6188884;23;20461;-83
2023/01/08 01:47:26;;;;;;;3.13;0.80;;;9.30;99.90;;;;;;6189336;23;20051;-83
2023/01/08 01:50:11;;;;;;;3.78;1.08;;;9.30;99.90;;;;;;6164612;23;20016;-84
2023/01/08 01:52:42;;;;;;;6.00;1.50;;;9.20;99.90;;;;;;6165049;23;20009;-83
2023/01/08 01:55:12;;;;;;;5.75;1.20;;;9.20;99.90;;;;;;6188791;23;20012;-82
2023/01/08 01:57:38;;;;;;;4.45;0.43;;;9.10;99.90;;;;;;6164324;23;20012;-83
2023/01/08 02:00:07;;;;;;;7.40;1.17;;;9.10;99.90;;;;;;6163752;23;20036;-83
2023/01/08 02:02:32;;;;;;;4.32;0.73;;;9.00;99.90;;;;;;6164315;23;20218;-83
2023/01/08 02:04:59;;;;;;;8.02;0.80;;;9.00;99.90;;;;;;6188735;23;20067;-83
2023/01/08 02:07:29;;;;;;;10.38;2.13;;;8.90;99.90;;;;;;6164677;23;20078;-83
2023/01/08 02:10:11;;;;;;;9.07;2.33;;;8.90;99.90;;;;;;6164018;23;20035;-83
2023/01/08 02:13:12;;;;;;;7.80;1.23;;;8.80;99.90;;;;;;6162222;23;20063;-84
2023/01/08 02:15:58;;;;;;;5.88;0.90;;;8.80;99.90;;;;;;6188010;23;20009;-83
2023/01/08 02:18:38;;;;;;;8.63;1.15;;;8.80;99.90;;;;;;6159205;23;20016;-83
2023/01/08 02:21:13;;;;;;;7.70;1.42;;;8.80;99.90;;;;;;6162875;23;20722;-83
2023/01/08 02:23:48;;;;;;;;;;;8.80;99.90;;;;;;6189364;23;20011;-83
2023/01/08 02:26:33;;;;;;;12.25;1.70;;;8.70;99.90;;;;;;6191651;23;20010;-83
2023/01/08 02:29:08;;;;;;;11.73;1.90;;;8.80;99.90;;;;;;6190720;23;20027;-83
2023/01/08 02:31:37;;;;;;;10.00;1.17;;;8.80;99.90;;;;;;6166241;23;20016;-83
2023/01/08 02:34:02;;;;;;;9.63;1.63;;;8.70;99.90;;;;;;6190680;23;20243;-83
2023/01/08 02:36:44;;;;;;;16.40;1.77;;;8.70;99.90;;;;;;6166174;23;20008;-83
2023/01/08 02:39:13;;;;;;;11.80;1.58;;;8.70;99.90;;;;;;6191749;23;20063;-83
2023/01/08 02:42:16;;;;;;;9.70;1.92;;;9.00;99.90;;;;;;6166663;23;20015;-83
2023/01/08 02:44:58;;;;;;;8.85;1.17;;;8.70;99.90;;;;;;6175116;23;20008;-83
2023/01/08 02:47:52;;;;;;;10.43;1.50;;;8.60;99.90;;;;;;6190028;23;20468;-83
2023/01/08 02:50:34;;;;;;;10.15;1.40;;;8.70;99.90;;;;;;6166931;23;20020;-83
2023/01/08 02:53:17;;;;;;;18.77;1.85;;;8.70;99.90;;;;;;6167700;23;20031;-83
2023/01/08 02:55:52;;;;;;;11.18;1.70;;;8.70;99.90;;;;;;6166688;23;20400;-83
2023/01/08 02:58:20;;;;;;;8.43;1.25;;;8.70;99.90;;;;;;6191482;23;20013;-83
2023/01/08 03:00:47;;;;;;;9.82;1.48;;;8.60;99.90;;;;;;6166911;23;20016;-83
2023/01/08 03:03:21;;;;;;;8.15;1.20;;;8.70;99.90;;;;;;6166760;23;20043;-83
2023/01/08 03:05:50;;;;;;;14.18;2.22;;;8.70;99.90;;;;;;6191203;23;20009;-83
2023/01/08 03:08:19;;;;;;;7.43;1.17;;;8.70;99.90;;;;;;6190025;23;20008;-83
2023/01/08 03:10:51;;;;;;;6.38;1.42;;;8.60;99.90;;;;;;6166633;23;20016;-84
2023/01/08 03:13:25;;;;;;;8.18;1.55;;;8.60;99.90;;;;;;6165330;23;20504;-83
2023/01/08 03:15:56;;;;;;;6.90;1.23;;;8.60;99.90;;;;;;6165019;23;20009;-83
2023/01/08 03:18:34;;;;;;;9.82;1.38;;;9.00;99.90;;;;;;6188233;23;20098;-83
2023/01/08 03:21:02;;;;;;;8.25;1.80;;;8.60;99.90;;;;;;6164840;23;20013;-83
2023/01/08 03:23:32;;;;;;;8.27;1.50;;;8.50;99.90;;;;;;6189566;23;20067;-83
2023/01/08 03:25:59;;;;;;;7.20;1.60;;;8.60;99.90;;;;;;6189503;23;20013;-83
2023/01/08 03:28:29;;;;;;;5.35;0.95;;;8.50;99.90;;;;;;6187977;23;20552;-83
2023/01/08 03:30:57;;;;;;;5.93;0.85;;;8.50;99.90;;;;;;6189495;23;20023;-83
2023/01/08 03:33:26;;;;;;;8.43;1.40;;;8.50;99.90;;;;;;6188588;23;20017;-84
2023/01/08 03:35:55;;;;;;;11.35;1.50;;;8.50;99.90;;;;;;6163541;23;20019;-83
2023/01/08 03:38:35;;;;;;;5.88;1.00;;;8.50;99.90;;;;;;6163578;23;20020;-83
2023/01/08 03:41:06;;;;;;;8.52;1.23;;;8.40;99.90;;;;;;6165933;23;20044;-83
2023/01/08 03:43:31;;;;;;;8.23;1.50;;;8.50;99.90;;;;;;6163629;23;20036;-83
2023/01/08 03:46:12;;;;;;;5.55;1.30;;;8.50;99.90;;;;;;6164570;23;20019;-83
2023/01/08 03:48:39;;;;;;;4.38;1.67;;;8.50;99.90;;;;;;6164080;23;20013;-83
2023/01/08 03:51:08;;;;;;;6.82;1.48;;;8.50;99.90;;;;;;6163795;23;20020;-83
2023/01/08 03:53:34;;;;;;;3.80;1.33;;;8.50;99.90;;;;;;6165402;23;20013;-83
2023/01/08 03:56:00;;;;;;;5.72;1.40;;;8.50;99.90;;;;;;6165044;23;20036;-83
2023/01/08 03:58:27;;;;;;;6.68;1.83;;;8.50;99.90;;;;;;6164450;23;20454;-84
2023/01/08 04:00:52;;;;;;;7.32;1.90;;;8.60;99.90;;;;;;6164351;23;20013;-84
2023/01/08 04:03:24;;;;;;;7.93;2.15;;;9.30;99.90;;;;;;6190825;23;20025;-83
2023/01/08 04:05:50;;;;;;;8.43;2.38;;;8.60;99.90;;;;;;6163696;23;20012;-84
2023/01/08 04:08:15;;;;;;;5.03;2.17;;;8.60;99.90;;;;;;6188603;23;20013;-83
2023/01/08 04:10:44;;;;;;;5.25;2.08;;;8.60;99.90;;;;;;6189973;23;20086;-83
2023/01/08 04:13:10;;;;;;;5.05;2.25;;;8.60;99.90;;;;;;6190124;23;20016;-83
2023/01/08 04:15:36;;;;;;;5.22;1.88;;;8.60;99.90;;;;;;6163157;23;20016;-83
2023/01/08 04:18:05;;;;;;;6.20;1.90;;;8.70;99.90;;;;;;6185660;23;20019;-84
2023/01/08 04:20:43;;;;;;;4.43;1.90;;;8.70;99.90;;;;;;6187979;23;20087;-83
2023/01/08 04:23:09;;;;;;;4.93;2.03;;;8.80;99.90;;;;;;6189051;23;20059;-83
2023/01/08 04:25:37;;;;;;;6.72;1.60;;;8.70;99.90;;;;;;6189102;23;20009;-83
2023/01/08 04:28:04;;;;;;;4.35;1.73;;;8.80;99.90;;;;;;6165097;23;20572;-83
2023/01/08 04:30:31;;;;;;;3.65;1.80;;;8.80;99.90;;;;;;6140656;23;20025;-83
2023/01/08 04:32:56;;;;;;;3.22;1.55;;;8.80;99.90;;;;;;6164056;23;20732;-83
2023/01/08 04:35:22;;;;;;;4.53;2.17;;;8.90;99.90;;;;;;6189623;23;20016;-83
2023/01/08 04:37:48;;;;;;;2.85;1.30;;;8.90;99.90;;;;;;6163015;23;20016;-83
2023/01/08 04:40:14;;;;;;;3.60;0.95;;;8.90;99.90;;;;;;6164661;23;20630;-83
2023/01/08 04:42:39;;;;;;;6.57;1.40;;;8.90;99.90;;;;;;6164412;23;20024;-83
2023/01/08 04:45:06;;;;;;;4.88;1.30;;;8.90;99.90;;;;;;6164774;23;20016;-83
2023/01/08 04:47:32;;;;;;;2.70;1.10;;;8.90;99.90;;;;;;6163264;23;20012;-83
2023/01/08 04:49:59;;;;;;;2.75;0.90;;;8.90;99.90;;;;;;6190084;23;20322;-84
2023/01/08 04:52:28;;;;;;;4.88;1.15;;;9.00;99.90;;;;;;6141747;23;20047;-83
2023/01/08 04:54:53;;;;;;;4.78;0.95;;;8.90;99.90;;;;;;6164340;23;20020;-83
2023/01/08 04:57:19;;;;;;;3.50;1.05;;;8.90;99.90;;;;;;6188567;23;20062;-83
2023/01/08 04:59:45;;;;;;;3.92;1.00;;;9.00;99.90;;;;;;6163825;23;20020;-84
2023/01/08 05:02:12;;;;;;;2.55;0.90;;;8.90;99.90;;;;;;6165107;23;20580;-83
2023/01/08 05:04:37;;;;;;;5.00;1.35;;;9.00;99.90;;;;;;6164135;23;20065;-83
2023/01/08 05:07:04;;;;;;;2.25;0.80;;;8.90;99.90;;;;;;6164534;23;20023;-83
2023/01/08 05:09:29;;;;;;;2.05;1.02;;;8.90;99.90;;;;;;6164830;23;20016;-83
2023/01/08 05:11:56;;;;;;;1.80;0.65;;;8.90;99.90;;;;;;6188603;23;20021;-83
2023/01/08 05:14:21;;;;;;;5.32;1.08;;;8.90;99.90;;;;;;6164855;23;20044;-83
2023/01/08 05:16:47;;;;;;;4.38;0.82;;;8.90;99.90;;;;;;6163079;23;20009;-83
2023/01/08 05:19:13;;;;;;;2.97;0.82;;;8.80;99.90;;;;;;6162363;23;20031;-84
2023/01/08 05:21:38;;;;;;;4.05;1.27;;;8.80;99.90;;;;;;6163747;23;20012;-83
2023/01/08 05:24:04;;;;;;;2.65;0.95;;;8.80;99.90;;;;;;6188256;23;20091;-83
2023/01/08 05:26:30;;;;;;;5.45;0.60;;;8.80;99.90;;;;;;6188431;23;20067;-83
2023/01/08 05:28:57;;;;;;;5.03;1.00;;;8.80;99.90;;;;;;6163975;23;20393;-83
2023/01/08 05:31:23;;;;;;;4.38;0.93;;;8.80;99.90;;;;;;6140514;23;20044;-84
2023/01/08 05:33:48;;;;;;;4.78;1.48;;;8.70;99.90;;;;;;6164519;23;20009;-83
2023/01/08 05:36:14;;;;;;;4.35;0.80;;;8.80;99.90;;;;;;6162590;23;20043;-83
2023/01/08 05:38:40;;;;;;;5.65;0.70;;;8.70;99.90;;;;;;6215395;23;20021;-83
2023/01/08 05:41:06;;;;;;;5.05;0.77;;;8.80;99.90;;;;;;6188790;23;20020;-83
2023/01/08 05:43:33;;;;;;;5.72;1.02;;;9.70;99.90;;;;;;6188625;23;20019;-83
2023/01/08 05:45:59;;;;;;;5.63;0.95;;;8.70;99.90;;;;;;6188121;23;20087;-83
2023/01/08 05:48:26;;;;;;;5.25;0.90;;;8.80;99.90;;;;;;6187425;23;20012;-83
2023/01/08 05:50:52;;;;;;;5.05;1.15;;;8.70;99.90;;;;;;6188332;23;20012;-83
2023/01/08 05:53:17;;;;;;;2.30;1.35;;;8.70;99.90;;;;;;6164709;23;20085;-83
2023/01/08 05:55:43;;;;;;;3.30;1.55;;;8.70;99.90;;;;;;6188795;23;20015;-83
2023/01/08 05:58:10;;;;;;;4.50;2.00;;;8.70;99.90;;;;;;6188700;23;20012;-84
2023/01/08 06:00:36;;;;;;;2.45;1.42;;;8.70;99.90;;;;;;6165430;23;20036;-84
2023/01/08 06:03:02;;;;;;;3.58;1.88;;;8.60;99.90;;;;;;6164634;23;20118;-83
2023/01/08 06:05:29;;;;;;;2.90;1.35;;;8.70;99.90;;;;;;6164176;23;20008;-83
2023/01/08 06:07:55;;;;;;;3.67;1.70;;;8.60;99.90;;;;;;6162640;23;20023;-83
2023/01/08 06:10:25;;;;;;;3.65;1.42;;;8.70;99.90;;;;;;6165083;23;20408;-84
2023/01/08 06:12:51;;;;;;;6.93;1.90;;;8.60;99.90;;;;;;6165232;23;20016;-84
2023/01/08 06:15:18;;;;;;;3.90;1.95;;;8.60;99.90;;;;;;6163580;23;20039;-83
2023/01/08 06:17:43;;;;;;;3.80;1.90;;;8.60;99.90;;;;;;6164431;23;20009;-83
2023/01/08 06:20:10;;;;;;;3.47;1.40;;;8.50;99.90;;;;;;6165733;23;20070;-83
2023/01/08 06:22:36;;;;;;;3.42;1.42;;;8.50;99.90;;;;;;6165852;23;20019;-83
2023/01/08 06:25:02;;;;;;;6.20;2.63;;;8.50;99.90;;;;;;6189820;23;20091;-83
2023/01/08 06:27:28;;;;;;;4.88;1.30;;;8.50;99.90;;;;;;6166046;23;20805;-83
2023/01/08 06:29:54;;;;;;;5.45;1.55;;;8.50;99.90;;;;;;6140708;23;20017;-84
2023/01/08 06:32:21;;;;;;;2.78;1.35;;;8.50;99.90;;;;;;6190456;23;20012;-83
2023/01/08 06:34:46;;;;;;;2.45;1.20;;;8.40;99.90;;;;;;6165591;23;20319;-83
2023/01/08 06:37:12;;;;;;;6.78;1.60;;;8.50;99.90;;;;;;6189183;23;20563;-83
2023/01/08 06:39:37;;;;;;;5.72;1.63;;;8.50;99.90;;;;;;6165599;23;20012;-84
2023/01/08 06:42:05;;;;;;;4.53;1.08;;;8.40;99.90;;;;;;6164051;23;20036;-83
2023/01/08 06:44:31;;;;;;;5.97;1.85;;;8.40;99.90;;;;;;6165694;23;20012;-83
2023/01/08 06:46:56;;;;;;;4.38;1.05;;;8.40;99.90;;;;;;6164309;23;20074;-83
2023/01/08 06:49:22;;;;;;;4.38;1.17;;;8.40;99.90;;;;;;6190280;23;20019;-84
2023/01/08 06:51:48;;;;;;;4.28;1.45;;;8.40;99.90;;;;;;6189958;23;20008;-84
2023/01/08 06:54:13;;;;;;;5.43;1.10;;;8.40;99.90;;;;;;6165901;23;20012;-83
2023/01/08 06:56:39;;;;;;;4.75;0.68;;;8.40;99.90;;;;;;6164638;23;20457;-83
2023/01/08 06:59:04;;;;;;;3.75;1.25;;;8.30;99.90;;;;;;6190229;23;20013;-85
2023/01/08 07:01:30;;;;;;;2.47;0.77;;;8.30;99.90;;;;;;6163708;23;20099;-83
2023/01/08 07:03:55;;;;;;;3.78;0.90;;;8.30;99.90;;;;;;6163542;23;20020;-83
2023/01/08 07:06:22;;;;;;;4.90;1.00;;;8.30;99.90;;;;;;6188548;23;20015;-83
2023/01/08 07:08:49;;;;;;;6.43;1.08;;;8.20;99.90;;;;;;6164784;23;20017;-83
2023/01/08 07:11:15;;;;;;;2.70;0.70;;;8.20;99.90;;;;;;6164393;23;20097;-83
2023/01/08 07:13:41;;;;;;;5.90;0.93;;;8.20;99.90;;;;;;6165956;23;20027;-83
2023/01/08 07:16:08;;;;;;;4.10;1.00;;;8.20;99.90;;;;;;6165965;23;20012;-83
2023/01/08 07:18:35;;;;;;;7.57;1.63;;;8.30;99.90;;;;;;6164512;23;20039;-83
2023/01/08 07:21:02;;;;;;;2.75;1.10;;;8.20;99.90;;;;;;6165101;23;20847;-83
2023/01/08 07:23:29;;;;;;;7.20;1.02;;;8.10;99.90;;;;;;6187256;23;20466;-85
2023/01/08 07:25:58;;;;;;;3.63;1.13;;;8.20;99.90;;;;;;6163460;23;20334;-83
2023/01/08 07:28:23;;;;;;;4.68;1.00;;;8.00;99.90;;;;;;6166270;23;20023;-83
2023/01/08 07:30:49;;;;;;;4.82;0.90;;;8.00;99.90;;;;;;6189943;23;20020;-85
2023/01/08 07:33:22;;;;;;;5.07;1.00;;;8.00;99.90;;;;;;6167706;23;20035;-83
2023/01/08 07:35:55;;;;;;;4.70;1.67;;;8.00;99.90;;;;;;6166867;23;20013;-84
2023/01/08 07:38:22;;;;;;;3.10;0.80;;;8.10;99.90;;;;;;6164397;23;20008;-84
2023/01/08 07:40:47;;;;;;;11.00;1.52;;;8.10;99.90;;;;;;6165913;23;20015;-84
2023/01/08 07:43:13;;;;;;;11.00;2.53;;;8.10;99.90;;;;;;6189930;23;20037;-85
2023/01/08 07:45:39;;;;;;;4.00;0.90;;;8.10;99.90;;;;;;6164812;23;20111;-84
2023/01/08 07:48:05;;;;;;;8.35;1.38;;;8.10;99.90;;;;;;6214610;23;20020;-83
2023/01/08 07:50:31;;;;;;;6.88;1.27;;;8.10;99.90;;;;;;6165532;23;20020;-83
2023/01/08 07:53:01;;;;;;;6.45;1.50;;;8.00;99.90;;;;;;6188683;23;20453;-85
2023/01/08 07:55:29;;;;;;;7.72;1.30;;;8.40;99.90;;;;;;6163894;23;20054;-83
2023/01/08 07:57:54;;;;;;;4.97;1.33;;;8.00;99.90;;;;;;6162675;23;20016;-84
2023/01/08 08:00:23;;;;;;;6.30;1.10;;;8.00;99.90;;;;;;6159517;23;20023;-85
2023/01/08 08:03:10;;;;;;;6.85;1.60;;;7.90;99.90;;;;;;6187509;23;20015;-85
2023/01/08 08:05:36;;;;;;;6.18;1.25;;;7.90;99.90;;;;;;6162854;23;20044;-85
2023/01/08 08:08:06;;;;;;;3.13;1.20;;;7.90;99.90;;;;;;6185939;23;20016;-85
2023/01/08 08:11:03;;;;;;;6.40;1.20;;;7.90;99.90;;;;;;6161125;23;20341;-87
2023/01/08 08:13:29;;;;;;;3.58;1.10;;;7.80;99.90;;;;;;6164460;23;20086;-84
2023/01/08 08:16:02;;;;;;;6.95;1.67;;;7.80;99.90;;;;;;6185768;23;20013;-83
2023/01/08 08:18:27;;;;;;;6.95;1.23;;;7.80;99.90;;;;;;6160833;23;20016;-84
2023/01/08 08:20:53;;;;;;;7.82;1.60;;;7.80;99.90;;;;;;6162553;23;20445;-84
2023/01/08 08:23:19;;;;;;;7.45;1.30;;;8.40;99.90;;;;;;6186958;23;20017;-83
2023/01/08 08:25:52;;;;;;;6.07;1.20;;;7.70;99.90;;;;;;6160924;23;20012;-84
2023/01/08 08:28:20;;;;;;;7.68;1.42;;;8.40;99.90;;;;;;6134435;23;20058;-84
2023/01/08 08:34:35;;;;;;;4.40;0.90;;;7.70;99.90;;;;;;6198073;23;20424;-85
2023/01/08 08:44:38;;;;;;;5.25;1.20;;;7.80;99.90;;;;;;6015680;23;20031;-83
2023/01/08 08:47:07;;;;;;;7.13;1.33;;;7.80;99.90;;;;;;6065610;23;20023;-82
2023/01/08 08:49:32;;;;;;;4.97;0.75;;;7.80;99.90;;;;;;6044953;23;20015;-83
2023/01/08 08:52:03;;;;;;;5.93;1.15;;;8.50;99.90;;;;;;6144475;23;20013;-83
2023/01/08 09:05:55;;;;;;;5.82;0.73;;;7.80;99.90;;;;;;6211022;23;20031;-86
2023/01/08 09:08:21;;;;;;;5.70;0.80;;;7.80;99.90;;;;;;6182521;23;20043;-85
2023/01/08 10:27:51;;;;;;;7.53;0.88;;;9.30;99.90;;;;;;6213934;23;20042;-84
2023/01/08 10:30:27;;;;;;;9.55;1.60;;;9.50;99.90;;;;;;6183790;23;20013;-82
2023/01/08 10:32:54;;;;;;;8.43;1.73;;;9.60;99.90;;;;;;6161105;23;20012;-84
2023/01/08 10:35:30;;;;;;;7.13;1.23;;;9.60;99.90;;;;;;6187225;23;20020;-84
2023/01/08 10:38:34;;;;;;;7.15;1.75;;;9.50;99.90;;;;;;6173597;23;20492;-83
2023/01/08 10:41:03;;;;;;;7.95;1.20;;;9.50;99.90;;;;;;6162102;23;20024;-84
2023/01/08 10:43:40;;;;;;;6.50;1.52;;;9.50;99.90;;;;;;6187298;23;20013;-84
2023/01/08 10:46:12;;;;;;;8.98;1.20;;;9.50;99.90;;;;;;6187676;23;20381;-84
2023/01/08 10:48:45;;;;;;;7.97;1.67;;;9.50;99.90;;;;;;6188172;23;20013;-84
2023/01/08 10:51:22;;;;;;;8.30;1.23;;;9.60;99.90;;;;;;6165557;23;20087;-84
2023/01/08 10:53:50;;;;;;;8.77;1.85;;;9.60;99.90;;;;;;6164441;23;20020;-84
2023/01/08 10:56:17;;;;;;;9.73;1.20;;;9.60;99.90;;;;;;6187475;23;20054;-85
2023/01/08 10:59:30;;;;;;;9.70;2.03;;;9.70;99.90;;;;;;6163383;23;20079;-85
2023/01/08 11:05:41;;;;;;;9.43;1.70;;;9.90;99.90;;;;;;6189534;23;20042;-86
2023/01/08 11:08:16;;;;;;;8.02;1.23;;;10.00;99.90;;;;;;6187660;23;20017;-84
2023/01/08 11:10:51;;;;;;;9.73;1.83;;;10.40;99.90;;;;;;6163172;23;20008;-85
2023/01/08 11:13:25;;;;;;;8.25;1.17;;;9.90;99.90;;;;;;6165041;23;20019;-84
2023/01/08 11:16:22;;;;;;;9.10;1.33;;;10.00;99.90;;;;;;6165032;23;20016;-89
2023/01/08 11:19:22;;;;;;;7.55;1.70;;;10.10;99.90;;;;;;6213779;23;20114;-86
2023/01/08 11:22:03;;;;;;;6.90;1.05;;;10.10;99.90;;;;;;6165392;23;20019;-83
2023/01/08 11:24:37;;;;;;;7.90;1.50;;;10.20;99.90;;;;;;6163719;23;20013;-83
2023/01/08 11:27:17;;;;;;;7.97;1.75;;;10.40;99.90;;;;;;6164085;23;20838;-83
2023/01/08 11:30:03;;;;;;;10.05;2.15;;;10.40;99.90;;;;;;6163905;23;20023;-82
2023/01/08 11:33:00;;;;;;;8.80;1.20;;;10.50;99.90;;;;;;6165402;23;20008;-83
2023/01/08 11:35:28;;;;;;;15.93;1.77;;;10.60;99.90;;;;;;6163932;23;20092;-83
2023/01/08 11:38:01;;;;;;;9.95;1.42;;;10.40;99.90;;;;;;6163416;23;20013;-84
2023/01/08 11:40:34;;;;;;;15.65;2.65;;;10.40;99.90;;;;;;6189107;23;20013;-83
2023/01/08 11:43:21;;;;;;;6.43;1.58;;;10.30;99.90;;;;;;6187582;23;20015;-83
2023/01/08 11:46:05;;;;;;;10.80;2.05;;;10.20;99.90;;;;;;6161771;23;20318;-84
2023/01/08 11:49:04;;;;;;;10.07;2.00;;;9.90;99.90;;;;;;6165923;23;20356;-84
2023/01/08 11:59:12;;;;;;;11.48;1.92;;;10.20;99.90;;;;;;6207683;23;20108;-83
2023/01/08 12:02:02;;;;;;;11.55;2.03;;;10.20;99.90;;;;;;6189247;23;20424;-83
2023/01/08 12:04:36;;;;;;;12.52;1.77;;;10.30;99.90;;;;;;6163841;23;20064;-83
2023/01/08 12:07:10;;;;;;;9.18;1.92;;;10.30;99.90;;;;;;6186837;23;20011;-84
2023/01/08 12:09:58;;;;;;;9.48;1.70;;;10.30;99.90;;;;;;6166078;23;20087;-84
2023/01/08 12:12:45;;;;;;;9.77;1.83;;;10.40;99.90;;;;;;6163923;23;20012;-83
2023/01/08 12:15:20;;;;;;;11.98;1.77;;;10.40;99.90;;;;;;6188518;23;20012;-83
2023/01/08 12:18:24;;;;;;;8.73;1.92;;;10.40;99.90;;;;;;6164666;23;20008;-83
2023/01/08 12:21:11;;;;;;;9.13;1.42;;;10.30;99.90;;;;;;6186878;23;20032;-82
2023/01/08 12:24:11;;;;;;;6.38;1.23;;;10.10;99.90;;;;;;6164606;23;20067;-82
2023/01/08 12:27:15;;;;;;;11.23;1.55;;;9.90;99.90;;;;;;6100985;23;20020;-83
2023/01/08 12:29:53;;;;;;;10.48;1.25;;;9.90;99.90;;;;;;6163902;23;20032;-83
2023/01/08 12:55:16;;;;;;;9.25;2.17;;;10.10;99.90;;;;;;6175363;23;20023;-83
2023/01/08 12:58:26;;;;;;;9.90;1.30;;;10.20;99.90;;;;;;6151706;23;20087;-84
2023/01/08 13:01:37;;;;;;;9.82;1.30;;;10.10;99.90;;;;;;6161609;23;20031;-83
2023/01/08 13:04:19;;;;;;;8.45;1.40;;;10.10;99.90;;;;;;6044535;23;20812;-83
2023/01/08 13:07:03;;;;;;;8.38;1.38;;;10.10;99.90;;;;;;6041761;23;20465;-82
2023/01/08 13:09:30;;;;;;;10.65;1.77;;;10.20;99.90;;;;;;6185783;23;20020;-84
2023/01/08 13:12:00;;;;;;;8.00;1.63;;;10.10;99.90;;;;;;6185304;23;20019;-85
2023/01/08 13:14:26;;;;;;;7.75;1.48;;;11.30;99.90;;;;;;6185375;23;20043;-87
2023/01/08 13:17:06;;;;;;;13.95;1.88;;;10.00;99.90;;;;;;6162512;23;20087;-86
2023/01/08 13:19:50;;;;;;;7.55;1.67;;;10.10;99.90;;;;;;6187097;23;20013;-85
2023/01/08 13:22:33;;;;;;;3.65;0.80;;;10.20;99.90;;;;;;6161835;23;20012;-84
2023/01/08 13:25:17;;;;;;;7.28;1.23;;;10.00;99.90;;;;;;6160215;23;20064;-84
2023/01/08 13:27:52;;;;;;;6.50;1.33;;;10.20;99.90;;;;;;6161404;23;20100;-85
2023/01/08 13:30:37;;;;;;;6.70;1.30;;;9.90;99.90;;;;;;6160398;23;20059;-87
2023/01/08 13:33:34;;;;;;;10.70;1.60;;;9.90;99.90;;;;;;6186171;23;20340;-83
2023/01/08 13:36:21;;;;;;;9.23;1.48;;;9.90;99.90;;;;;;6210768;23;20028;-85
2023/01/08 13:38:59;;;;;;;5.55;0.93;;;9.80;99.90;;;;;;6213948;23;20087;-84
2023/01/08 13:41:26;;;;;;;5.18;1.05;;;9.70;99.90;;;;;;6163513;23;20036;-82
2023/01/08 13:44:17;;;;;;;8.35;1.23;;;9.70;99.90;;;;;;6163148;23;20017;-84
2023/01/08 13:46:56;;;;;;;6.80;1.00;;;9.70;99.90;;;;;;6160035;23;20020;-82
2023/01/08 13:49:30;;;;;;;7.65;1.20;;;9.80;99.90;;;;;;6186491;23;20021;-82
2023/01/08 13:51:57;;;;;;;4.57;0.95;;;9.80;99.90;;;;;;6188127;23;20107;-83
2023/01/08 13:54:34;;;;;;;5.18;0.93;;;9.90;99.90;;;;;;6160983;23;20050;-82
2023/01/08 13:57:13;;;;;;;6.00;1.00;;;9.90;99.90;;;;;;6160312;23;20384;-81
2023/01/08 13:59:40;;;;;;;5.07;0.85;;;9.80;99.90;;;;;;6185393;23;20428;-81
2023/01/08 14:02:28;;;;;;;6.38;1.00;;;9.80;99.90;;;;;;6185968;23;20017;-80
2023/01/08 14:04:54;;;;;;;5.22;1.10;;;9.80;99.90;;;;;;6185947;23;20040;-83
2023/01/08 14:07:22;;;;;;;8.23;1.10;;;9.70;99.90;;;;;;6185684;23;20020;-82
2023/01/08 14:10:07;;;;;;;10.48;1.88;;;9.70;99.90;;;;;;6185688;23;20016;-82
2023/01/08 14:12:33;;;;;;;6.82;0.85;;;9.60;99.90;;;;;;6160246;23;20044;-81
2023/01/08 14:14:59;;;;;;;6.50;1.20;;;9.60;99.90;;;;;;6160747;23;20026;-82
2023/01/08 14:17:42;;;;;;;7.65;1.10;;;9.70;99.90;;;;;;6160909;23;20023;-83
2023/01/08 14:20:19;;;;;;;4.97;0.90;;;9.70;99.90;;;;;;6185189;23;20020;-83
2023/01/08 14:22:44;;;;;;;2.58;0.63;;;9.80;99.90;;;;;;6140234;23;20520;-82
2023/01/08 14:25:17;;;;;;;5.00;0.93;;;9.80;99.90;;;;;;6162535;23;20024;-82
2023/01/08 14:27:52;;;;;;;3.08;0.70;;;9.80;99.90;;;;;;6162284;23;20051;-81
2023/01/08 14:30:18;;;;;;;;;;;9.80;99.90;;;;;;6164616;23;20016;-82
2023/01/08 14:32:45;;;;;;;4.53;1.00;;;9.80;99.90;;;;;;6163570;23;19987;-82
2023/01/08 14:42:43;;;;;;;2.20;1.00;;;9.60;99.90;;;;;;6159634;23;20075;-84
2023/01/08 14:45:58;;;;;;;4.88;0.85;;;10.20;99.90;;;;;;6101823;23;20041;-84
2023/01/08 14:48:41;;;;;;;6.00;0.70;;;9.50;99.90;;;;;;6121446;23;20070;-84
2023/01/08 14:58:41;;;;;;;7.13;0.82;;;9.20;99.90;;;;;;6213456;23;20030;-84
2023/01/08 15:05:31;;;;;;;3.97;0.93;;;9.20;99.90;;;;;;6214780;23;20016;-84
2023/01/08 15:08:31;;;;;;;4.18;0.45;;;9.30;99.90;;;;;;6005660;23;20019;-83
2023/01/08 15:11:29;;;;;;;3.13;0.60;;;9.20;99.90;;;;;;6040013;23;20073;-84
2023/01/08 15:18:49;;;;;;;2.78;0.50;;;8.50;99.90;;;;;;6212765;23;20460;-84
2023/01/08 15:22:35;;;;;;;2.95;0.40;;;8.80;99.90;;;;;;6091069;23;20071;-83
2023/01/08 15:25:24;;;;;;;2.10;0.40;;;8.80;99.90;;;;;;6187462;23;20009;-84
2023/01/08 15:28:49;;;;;;;4.80;0.77;;;8.80;99.90;;;;;;6138733;23;20744;-84
2023/01/08 15:31:49;;;;;;;3.28;0.40;;;8.60;99.90;;;;;;6194012;23;20027;-83
2023/01/08 15:34:52;;;;;;;1.58;0.35;;;8.60;99.90;;;;;;6160343;23;20524;-84
2023/01/08 15:38:28;;;;;;;1.83;0.40;;;8.50;99.90;;;;;;6112302;23;20021;-84
2023/01/08 15:59:31;;;;;;;;;;;;;;;;;;;;;
2023/01/08 16:17:07;;;;;;;2.83;0.50;;;8.00;99.90;;;;;;6064203;23;20078;-84
2023/01/08 16:48:50;;;;;;;2.55;0.75;;;7.60;99.90;;;;;;6121525;23;20021;-83
2023/01/08 16:51:17;;;;;;;2.92;0.60;;;7.50;99.90;;;;;;6097042;23;20029;-83
2023/01/08 16:54:15;;;;;;;3.50;0.98;;;7.50;99.90;;;;;;6072871;23;20014;-86
2023/01/08 17:22:18;;;;;;;7.28;1.73;;;7.20;99.90;;;;;;6214064;23;20468;-83
2023/01/08 17:24:57;;;;;;;7.05;1.08;;;7.20;99.90;;;;;;6158991;23;20016;-83
2023/01/08 17:27:29;;;;;;;4.55;1.15;;;7.20;99.90;;;;;;6137411;23;20365;-83
2023/01/08 17:34:41;;;;;;;5.93;1.10;;;7.20;99.90;;;;;;6180494;23;20028;-83
2023/01/08 17:48:00;;;;;;;5.78;0.90;;;7.10;99.90;;;;;;6178426;23;20032;-85